Hermosa Beach, California
Current Conditions -  °F | °C
As of 10:53 AM on Thursday 30 Oct 2014 (Local Time) from KLAX Reporting Station
Scattered Clouds Scattered Clouds  
Wind Chill: 72°   Ceiling: Unl
Heat Index: 72°   Visibility: 10mi
Dew Point: 54°   Wind: 0mph
Humidity: 52%   Direction: NA
Pressure: 29.99"   Gusts: NA
Location:  33.86°N, 118.39°W
Report Text: KLAX 301753Z 00000KT 10SM SCT200 22/12 A2999 RMK AO2 SLP153 T02240121 10222 20161 50003
Loading
Personal Weather Stations






























Interactive Weather Map
Tropical Storm Tracking
New forecast layout! Learn more

10-Day Weather Forecast

Advertisements
Track Severe Weather on mobile